TimePDT,TemperatureF,Dew PointF,Humidity,Sea Level PressureIn,VisibilityMPH,Wind Direction,Wind SpeedMPH,Gust SpeedMPH,PrecipitationIn,Events,Conditions,WindDirDegrees,DateUTC
12:53 AM,24.1,16.0,71,30.38,10.0,Calm,Calm,-,N/A,,Clear,0,2012-10-05 07:53:00
1:53 AM,25.0,16.0,69,30.38,10.0,Calm,Calm,-,N/A,,Clear,0,2012-10-05 08:53:00
2:53 AM,24.1,16.0,71,30.38,10.0,North,4.6,-,N/A,,Clear,10,2012-10-05 09:53:00
3:53 AM,30.0,19.0,64,30.38,10.0,Calm,Calm,-,N/A,,Clear,0,2012-10-05 10:53:00
4:53 AM,25.0,17.1,72,30.39,10.0,North,4.6,-,N/A,,Clear,360,2012-10-05 11:53:00
5:53 AM,35.1,21.0,57,30.39,10.0,NNE,6.9,-,N/A,,Clear,20,2012-10-05 12:53:00
6:53 AM,30.0,19.9,66,30.43,10.0,North,3.5,-,N/A,,Clear,10,2012-10-05 13:53:00
7:53 AM,35.1,21.9,59,30.44,10.0,North,4.6,-,N/A,,Clear,350,2012-10-05 14:53:00
8:53 AM,43.0,23.0,45,30.45,10.0,North,4.6,-,N/A,,Clear,10,2012-10-05 15:53:00
9:53 AM,48.0,23.0,37,30.45,10.0,NE,11.5,-,N/A,,Clear,50,2012-10-05 16:53:00
10:53 AM,53.1,23.0,31,30.44,10.0,NNE,10.4,-,N/A,,Clear,30,2012-10-05 17:53:00
11:53 AM,55.0,19.0,24,30.43,10.0,East,6.9,-,N/A,,Clear,100,2012-10-05 18:53:00
12:53 PM,57.0,17.1,21,30.41,10.0,Variable,3.5,-,N/A,,Clear,0,2012-10-05 19:53:00
1:53 PM,57.9,17.1,20,30.39,10.0,East,9.2,-,N/A,,Clear,80,2012-10-05 20:53:00
2:53 PM,60.1,17.1,19,30.38,10.0,NNE,10.4,-,N/A,,Clear,30,2012-10-05 21:53:00
3:53 PM,60.1,16.0,18,30.36,10.0,NNE,8.1,-,N/A,,Clear,30,2012-10-05 22:53:00
4:53 PM,59.0,16.0,19,30.36,10.0,NE,6.9,-,N/A,,Clear,40,2012-10-05 23:53:00
6:53 PM,41.0,18.0,40,30.37,10.0,ENE,3.5,-,N/A,,Clear,70,2012-10-06 01:53:00
7:53 PM,35.1,16.0,46,30.38,4.0,WNW,4.6,-,N/A,,Haze,290,2012-10-06 02:53:00
8:53 PM,32.0,16.0,52,30.37,10.0,North,3.5,-,N/A,,Clear,360,2012-10-06 03:53:00
9:53 PM,28.0,16.0,61,30.37,10.0,North,3.5,-,N/A,,Clear,350,2012-10-06 04:53:00
10:53 PM,30.0,18.0,61,30.37,10.0,Calm,Calm,-,N/A,,Clear,0,2012-10-06 05:53:00
11:53 PM,26.1,16.0,66,30.37,10.0,Calm,Calm,-,N/A,,Clear,0,2012-10-06 06:53:00